Time;durP1;ratioP1;P1;durP2;ratioP2;P2;SDS_P1;SDS_P2;PMS_P1;PMS_P2;Temp;Humidity;BMP_temperature;BMP_pressure;BME280_temperature;BME280_humidity;BME280_pressure;Samples;Min_cycle;Max_cycle;Signal;HPM_P1;HPM_P2
2022/11/29 00:00:58;;;;;;;223.10;28.40;;;;;;;;;;5056774;28;20053;-83
2022/11/29 00:03:27;;;;;;;186.07;28.33;;;;;;;;;;5054940;28;21014;-82
2022/11/29 00:05:54;;;;;;;327.45;30.25;;;;;;;;;;5055218;28;20056;-82
2022/11/29 00:08:22;;;;;;;237.40;29.52;;;;;;;;;;5058325;28;20454;-82
2022/11/29 00:10:50;;;;;;;183.32;27.65;;;;;;;;;;5047365;28;20073;-82
2022/11/29 00:13:18;;;;;;;215.23;29.55;;;;;;;;;;5052051;28;20069;-83
2022/11/29 00:15:45;;;;;;;242.82;31.65;;;;;;;;;;5054265;28;20133;-82
2022/11/29 00:18:12;;;;;;;349.40;32.00;;;;;;;;;;5055305;28;20497;-82
2022/11/29 00:20:41;;;;;;;139.00;27.45;;;;;;;;;;5053537;28;20095;-82
2022/11/29 00:23:11;;;;;;;313.13;29.80;;;;;;;;;;5053967;28;20041;-82
2022/11/29 00:25:38;;;;;;;266.27;30.45;;;;;;;;;;5058460;28;20034;-82
2022/11/29 00:28:06;;;;;;;296.65;29.95;;;;;;;;;;5056874;28;20080;-82
2022/11/29 00:30:36;;;;;;;430.70;31.98;;;;;;;;;;5051908;28;20977;-82
2022/11/29 00:33:04;;;;;;;301.30;31.58;;;;;;;;;;5053084;28;20168;-82
2022/11/29 00:35:32;;;;;;;320.67;33.58;;;;;;;;;;5049255;28;20030;-82
2022/11/29 00:38:00;;;;;;;257.48;29.50;;;;;;;;;;5055464;28;20053;-83
2022/11/29 00:40:28;;;;;;;320.58;33.88;;;;;;;;;;5056945;28;20052;-82
2022/11/29 00:42:55;;;;;;;286.02;30.33;;;;;;;;;;5055621;28;20033;-82
2022/11/29 00:45:23;;;;;;;365.83;33.17;;;;;;;;;;5055532;28;20061;-82
2022/11/29 00:47:50;;;;;;;407.25;31.85;;;;;;;;;;5056252;28;20435;-82
2022/11/29 00:50:17;;;;;;;364.98;33.45;;;;;;;;;;5051456;28;20145;-82
2022/11/29 00:52:45;;;;;;;243.52;30.85;;;;;;;;;;5052149;28;20053;-83
2022/11/29 00:55:13;;;;;;;272.75;31.70;;;;;;;;;;5056989;28;20045;-83
2022/11/29 00:57:42;;;;;;;155.25;27.20;;;;;;;;;;5056473;28;20056;-82
2022/11/29 01:00:11;;;;;;;158.70;30.92;;;;;;;;;;5055917;28;20077;-82
2022/11/29 01:02:38;;;;;;;201.95;29.08;;;;;;;;;;5043199;28;20065;-83
2022/11/29 01:05:06;;;;;;;453.40;34.88;;;;;;;;;;5055400;28;20021;-83
2022/11/29 01:07:34;;;;;;;346.55;33.30;;;;;;;;;;5051092;28;20072;-83
2022/11/29 01:10:02;;;;;;;265.65;31.35;;;;;;;;;;5055703;28;20050;-83
2022/11/29 01:12:29;;;;;;;304.48;28.45;;;;;;;;;;5050492;28;20069;-83
2022/11/29 01:14:58;;;;;;;351.58;32.67;;;;;;;;;;5055870;28;20054;-82
2022/11/29 01:17:25;;;;;;;290.33;30.80;;;;;;;;;;5059975;28;20048;-83
2022/11/29 01:19:53;;;;;;;317.33;30.95;;;;;;;;;;5056031;28;20049;-83
2022/11/29 01:22:20;;;;;;;327.17;31.90;;;;;;;;;;5053336;28;20040;-83
2022/11/29 01:24:48;;;;;;;290.13;32.38;;;;;;;;;;5059738;28;20053;-83
2022/11/29 01:27:16;;;;;;;294.48;30.95;;;;;;;;;;5056903;28;20068;-82
2022/11/29 01:29:44;;;;;;;240.98;28.33;;;;;;;;;;5055855;28;20092;-83
2022/11/29 01:32:11;;;;;;;212.38;28.65;;;;;;;;;;5058836;28;20045;-82
2022/11/29 01:34:39;;;;;;;234.20;30.77;;;;;;;;;;5054227;28;20034;-82
2022/11/29 01:37:10;;;;;;;286.98;30.00;;;;;;;;;;5051190;28;20049;-82
2022/11/29 01:39:37;;;;;;;183.30;28.27;;;;;;;;;;5056740;28;20053;-82
2022/11/29 01:42:07;;;;;;;208.00;29.65;;;;;;;;;;5051813;28;20056;-82
2022/11/29 01:44:36;;;;;;;202.23;27.65;;;;;;;;;;5057104;28;20052;-82
2022/11/29 01:47:04;;;;;;;167.98;26.50;;;;;;;;;;5056507;28;20064;-82
2022/11/29 01:49:31;;;;;;;207.48;28.05;;;;;;;;;;5058605;28;20722;-82
2022/11/29 01:52:06;;;;;;;296.67;29.33;;;;;;;;;;5057071;28;20605;-82
2022/11/29 01:54:38;;;;;;;266.17;28.92;;;;;;;;;;5057804;28;20100;-82
2022/11/29 01:57:09;;;;;;;227.43;29.27;;;;;;;;;;5053546;28;20059;-82
2022/11/29 01:59:38;;;;;;;190.90;27.73;;;;;;;;;;5054668;28;20049;-83
2022/11/29 02:02:08;;;;;;;224.93;27.80;;;;;;;;;;5057334;28;20063;-83
2022/11/29 02:04:40;;;;;;;257.48;32.13;;;;;;;;;;5057211;28;20144;-82
2022/11/29 02:07:07;;;;;;;140.07;27.77;;;;;;;;;;5054615;28;20140;-82
2022/11/29 02:09:40;;;;;;;180.48;28.10;;;;;;;;;;5049675;28;20126;-82
2022/11/29 02:12:34;;;;;;;229.25;27.58;;;;;;;;;;5055485;28;20057;-82
2022/11/29 02:15:04;;;;;;;140.60;27.42;;;;;;;;;;5057196;28;21192;-82
2022/11/29 02:17:34;;;;;;;150.77;27.48;;;;;;;;;;5054868;28;20050;-82
2022/11/29 02:20:21;;;;;;;234.13;27.38;;;;;;;;;;5052224;28;20049;-83
2022/11/29 02:23:07;;;;;;;170.10;26.65;;;;;;;;;;5054545;28;20140;-83
2022/11/29 02:25:57;;;;;;;275.25;27.90;;;;;;;;;;5054821;28;20137;-83
2022/11/29 02:28:27;;;;;;;224.60;28.63;;;;;;;;;;5054428;28;20834;-82
2022/11/29 02:30:59;;;;;;;263.00;29.02;;;;;;;;;;5052348;28;20112;-83
2022/11/29 02:33:36;;;;;;;100.70;24.75;;;;;;;;;;5052508;28;20126;-83
2022/11/29 02:36:18;;;;;;;112.53;24.48;;;;;;;;;;5053413;28;20049;-83
2022/11/29 02:39:16;;;;;;;135.43;25.13;;;;;;;;;;5048199;28;20054;-83
2022/11/29 02:41:49;;;;;;;175.02;25.63;;;;;;;;;;5050930;28;20053;-82
2022/11/29 02:44:28;;;;;;;177.38;26.05;;;;;;;;;;5056165;28;20050;-82
2022/11/29 02:47:24;;;;;;;170.10;26.98;;;;;;;;;;5059450;28;20052;-83
2022/11/29 02:50:10;;;;;;;111.32;23.73;;;;;;;;;;5032250;28;20072;-83
2022/11/29 02:52:52;;;;;;;102.93;25.00;;;;;;;;;;5054974;28;20597;-82
2022/11/29 02:55:38;;;;;;;188.90;26.33;;;;;;;;;;5046255;28;20101;-82
2022/11/29 02:58:16;;;;;;;180.48;25.77;;;;;;;;;;5054276;28;20060;-82
2022/11/29 03:00:59;;;;;;;244.02;26.10;;;;;;;;;;5047890;28;20049;-82
2022/11/29 03:03:40;;;;;;;252.77;25.75;;;;;;;;;;5063903;28;20055;-81
2022/11/29 03:06:31;;;;;;;213.73;26.05;;;;;;;;;;5054120;28;20041;-82
2022/11/29 03:09:01;;;;;;;97.80;24.48;;;;;;;;;;5060401;28;20040;-81
2022/11/29 03:11:29;;;;;;;294.63;27.30;;;;;;;;;;5050956;28;20102;-82
2022/11/29 03:14:14;;;;;;;165.32;22.70;;;;;;;;;;5053798;28;20057;-82
2022/11/29 03:16:49;;;;;;;202.23;25.10;;;;;;;;;;5049194;28;20049;-82
2022/11/29 03:19:17;;;;;;;250.20;27.02;;;;;;;;;;5049632;28;20049;-82
2022/11/29 03:21:53;;;;;;;217.88;26.20;;;;;;;;;;5059256;28;20056;-82
2022/11/29 03:24:28;;;;;;;175.05;26.88;;;;;;;;;;5051485;28;20047;-82
2022/11/29 03:27:09;;;;;;;186.98;26.33;;;;;;;;;;5064349;28;20042;-82
2022/11/29 03:29:40;;;;;;;166.00;23.58;;;;;;;;;;5057278;28;20034;-81
2022/11/29 03:32:19;;;;;;;146.82;24.38;;;;;;;;;;5057888;28;20049;-81
2022/11/29 03:35:04;;;;;;;143.95;25.85;;;;;;;;;;5053133;28;20108;-82
2022/11/29 03:37:41;;;;;;;252.65;27.45;;;;;;;;;;5054469;28;20049;-82
2022/11/29 03:40:12;;;;;;;186.57;25.75;;;;;;;;;;5057909;28;20097;-82
2022/11/29 03:42:49;;;;;;;237.90;25.90;;;;;;;;;;5055999;28;20075;-82
2022/11/29 03:45:35;;;;;;;234.80;27.95;;;;;;;;;;5056495;28;20148;-82
2022/11/29 03:48:31;;;;;;;189.20;23.20;;;;;;;;;;5054490;28;20060;-82
2022/11/29 03:51:13;;;;;;;155.18;22.65;;;;;;;;;;5051861;28;20034;-82
2022/11/29 03:53:52;;;;;;;189.15;23.90;;;;;;;;;;5056627;28;20138;-82
2022/11/29 03:56:26;;;;;;;169.00;22.42;;;;;;;;;;5058369;28;20045;-82
2022/11/29 03:59:09;;;;;;;147.45;24.15;;;;;;;;;;5058481;28;20053;-82
2022/11/29 04:01:39;;;;;;;274.08;26.00;;;;;;;;;;5050711;28;20045;-82
2022/11/29 04:04:22;;;;;;;217.88;22.77;;;;;;;;;;5052057;28;20961;-82
2022/11/29 04:06:55;;;;;;;308.08;23.70;;;;;;;;;;5050418;28;20089;-82
2022/11/29 04:09:23;;;;;;;;;;;;;;;;;;5048738;28;20079;-82
2022/11/29 04:12:08;;;;;;;225.43;23.90;;;;;;;;;;5058464;28;44888;-82
2022/11/29 04:14:51;;;;;;;197.98;24.10;;;;;;;;;;5059186;28;20041;-82
2022/11/29 04:17:21;;;;;;;259.25;25.42;;;;;;;;;;5056158;28;20060;-82
2022/11/29 04:20:11;;;;;;;251.18;23.10;;;;;;;;;;5054451;28;20050;-82
2022/11/29 04:22:52;;;;;;;355.77;25.90;;;;;;;;;;5057815;28;20060;-82
2022/11/29 04:25:41;;;;;;;398.70;25.77;;;;;;;;;;5059024;28;20053;-82
2022/11/29 04:28:28;;;;;;;315.00;23.40;;;;;;;;;;5053173;28;20121;-82
2022/11/29 04:31:01;;;;;;;388.30;24.17;;;;;;;;;;5055430;28;21787;-82
2022/11/29 04:33:47;;;;;;;345.42;23.67;;;;;;;;;;5057588;28;20037;-82
2022/11/29 04:36:33;;;;;;;409.23;22.75;;;;;;;;;;5062941;28;20054;-82
2022/11/29 04:39:03;;;;;;;308.60;24.50;;;;;;;;;;5063549;28;20101;-82
2022/11/29 04:41:45;;;;;;;361.58;24.67;;;;;;;;;;5061560;28;20149;-82
2022/11/29 04:44:22;;;;;;;367.20;23.98;;;;;;;;;;5055582;28;20042;-83
2022/11/29 04:47:15;;;;;;;303.23;22.13;;;;;;;;;;5056434;28;20052;-82
2022/11/29 04:50:05;;;;;;;443.97;25.07;;;;;;;;;;5057605;28;20058;-83
2022/11/29 04:52:49;;;;;;;273.40;21.10;;;;;;;;;;5040111;28;20507;-82
2022/11/29 04:55:16;;;;;;;;;;;;;;;;;;5060465;28;20041;-83
2022/11/29 04:57:58;;;;;;;368.05;21.33;;;;;;;;;;5061911;28;44456;-82
2022/11/29 05:00:26;;;;;;;332.45;21.75;;;;;;;;;;5053599;28;20064;-82
2022/11/29 05:02:56;;;;;;;361.05;21.67;;;;;;;;;;5074954;28;20405;-82
2022/11/29 05:05:30;;;;;;;262.00;20.17;;;;;;;;;;5056454;28;20053;-82
2022/11/29 05:08:18;;;;;;;272.15;20.27;;;;;;;;;;5062240;28;20049;-82
2022/11/29 05:11:05;;;;;;;287.98;20.60;;;;;;;;;;5050139;28;20128;-82
2022/11/29 05:13:37;;;;;;;437.05;25.27;;;;;;;;;;5055562;28;20072;-82
2022/11/29 05:16:08;;;;;;;372.45;22.77;;;;;;;;;;5062706;28;20054;-82
2022/11/29 05:18:48;;;;;;;293.83;20.63;;;;;;;;;;5059510;28;20049;-82
2022/11/29 05:21:24;;;;;;;322.90;22.05;;;;;;;;;;5053952;28;20787;-82
2022/11/29 05:24:04;;;;;;;384.35;22.98;;;;;;;;;;5061441;28;20042;-81
2022/11/29 05:26:37;;;;;;;455.90;25.63;;;;;;;;;;5058085;28;20038;-82
2022/11/29 05:29:18;;;;;;;487.73;24.90;;;;;;;;;;5061181;28;20052;-82
2022/11/29 05:32:04;;;;;;;296.20;21.10;;;;;;;;;;5067479;28;20049;-82
2022/11/29 05:34:51;;;;;;;436.02;24.30;;;;;;;;;;5057820;28;20042;-82
2022/11/29 05:37:27;;;;;;;336.08;21.17;;;;;;;;;;5057607;28;20100;-82
2022/11/29 05:40:04;;;;;;;208.80;18.75;;;;;;;;;;5054366;28;20845;-84
2022/11/29 05:42:41;;;;;;;307.75;20.60;;;;;;;;;;5059918;28;20045;-82
2022/11/29 05:45:23;;;;;;;260.88;19.10;;;;;;;;;;5056532;28;20139;-82
2022/11/29 05:47:51;;;;;;;292.13;20.75;;;;;;;;;;5053493;28;20056;-83
2022/11/29 05:50:22;;;;;;;319.85;21.00;;;;;;;;;;5053189;28;20550;-82
2022/11/29 05:53:01;;;;;;;272.02;20.08;;;;;;;;;;5055620;28;20045;-82
2022/11/29 05:55:39;;;;;;;455.35;23.88;;;;;;;;;;5053065;28;20127;-82
2022/11/29 05:58:25;;;;;;;333.88;21.60;;;;;;;;;;5058425;28;20763;-82
2022/11/29 06:01:17;;;;;;;511.73;25.42;;;;;;;;;;5051620;28;20152;-83
2022/11/29 06:04:05;;;;;;;232.10;20.13;;;;;;;;;;5055440;28;20049;-82
2022/11/29 06:06:46;;;;;;;385.45;23.10;;;;;;;;;;5049474;28;20049;-82
2022/11/29 06:09:21;;;;;;;284.10;18.88;;;;;;;;;;5057603;28;20140;-82
2022/11/29 06:11:52;;;;;;;234.80;18.52;;;;;;;;;;5057593;28;20175;-82
2022/11/29 06:14:39;;;;;;;254.63;17.30;;;;;;;;;;5057998;28;20045;-82
2022/11/29 06:17:09;;;;;;;230.18;18.08;;;;;;;;;;5051115;28;20068;-82
2022/11/29 06:20:09;;;;;;;269.27;17.50;;;;;;;;;;5055960;28;20097;-82
2022/11/29 06:22:46;;;;;;;231.80;17.40;;;;;;;;;;5038330;28;20054;-82
2022/11/29 06:25:21;;;;;;;242.23;17.27;;;;;;;;;;5057555;28;20088;-82
2022/11/29 06:28:07;;;;;;;405.27;21.33;;;;;;;;;;5060089;28;20567;-82
2022/11/29 06:31:02;;;;;;;329.58;20.30;;;;;;;;;;5053860;28;20050;-82
2022/11/29 06:33:38;;;;;;;348.48;21.10;;;;;;;;;;5052754;28;20057;-82
2022/11/29 06:36:32;;;;;;;289.55;19.35;;;;;;;;;;5055923;28;20056;-82
2022/11/29 06:38:59;;;;;;;397.85;21.73;;;;;;;;;;5046556;28;20052;-82
2022/11/29 06:41:30;;;;;;;391.50;21.50;;;;;;;;;;5058815;28;20057;-82
2022/11/29 06:43:57;;;;;;;363.35;20.00;;;;;;;;;;5053261;28;20042;-82
2022/11/29 06:46:46;;;;;;;335.05;20.77;;;;;;;;;;5057957;28;20109;-82
2022/11/29 06:49:21;;;;;;;380.23;21.08;;;;;;;;;;5049667;28;20057;-82
2022/11/29 06:52:11;;;;;;;311.27;20.33;;;;;;;;;;5055993;28;20049;-82
2022/11/29 06:54:45;;;;;;;310.55;19.48;;;;;;;;;;5053591;28;20100;-83
2022/11/29 06:57:20;;;;;;;303.60;17.83;;;;;;;;;;5055833;28;20049;-82
2022/11/29 07:00:01;;;;;;;216.55;16.70;;;;;;;;;;5058724;28;20057;-82
2022/11/29 07:02:35;;;;;;;218.02;16.38;;;;;;;;;;5050335;28;20049;-82
2022/11/29 07:05:21;;;;;;;328.55;19.98;;;;;;;;;;5056652;28;20102;-82
2022/11/29 07:07:49;;;;;;;218.88;17.17;;;;;;;;;;5054426;28;20140;-82
2022/11/29 07:10:18;;;;;;;241.05;17.48;;;;;;;;;;5058313;28;20080;-82
2022/11/29 07:12:47;;;;;;;197.60;17.10;;;;;;;;;;5054418;28;20049;-82
2022/11/29 07:15:16;;;;;;;392.10;20.20;;;;;;;;;;5070053;28;20045;-82
2022/11/29 07:18:02;;;;;;;270.08;17.35;;;;;;;;;;5068852;28;20060;-82
2022/11/29 07:20:37;;;;;;;316.65;19.65;;;;;;;;;;5054221;28;20045;-82
2022/11/29 07:23:08;;;;;;;265.60;17.02;;;;;;;;;;5053556;28;20052;-83
2022/11/29 07:25:39;;;;;;;252.98;16.75;;;;;;;;;;5066868;28;20075;-82
2022/11/29 07:28:15;;;;;;;267.30;19.23;;;;;;;;;;5064965;28;20048;-82
2022/11/29 07:31:01;;;;;;;296.20;19.75;;;;;;;;;;5067787;28;20063;-82
2022/11/29 07:33:41;;;;;;;239.55;17.00;;;;;;;;;;5056607;28;20077;-82
2022/11/29 07:36:18;;;;;;;276.25;16.45;;;;;;;;;;5059353;28;20045;-82
2022/11/29 07:39:04;;;;;;;265.02;16.83;;;;;;;;;;5061745;28;20057;-82
2022/11/29 07:41:42;;;;;;;190.90;15.45;;;;;;;;;;5071113;28;20057;-82
2022/11/29 07:44:12;;;;;;;187.93;16.08;;;;;;;;;;5064083;28;20208;-82
2022/11/29 07:46:46;;;;;;;178.55;14.98;;;;;;;;;;5065276;28;20049;-82
2022/11/29 07:49:14;;;;;;;157.45;13.98;;;;;;;;;;5062797;28;20064;-82
2022/11/29 07:51:42;;;;;;;155.52;13.05;;;;;;;;;;5061312;28;20050;-82
2022/11/29 07:54:12;;;;;;;195.82;15.00;;;;;;;;;;5068366;28;20046;-82
2022/11/29 07:56:41;;;;;;;173.95;13.73;;;;;;;;;;5064389;28;20109;-82
2022/11/29 07:59:17;;;;;;;138.23;12.82;;;;;;;;;;5078316;28;20060;-83
2022/11/29 08:01:45;;;;;;;104.50;13.30;;;;;;;;;;5070401;28;20057;-82
2022/11/29 08:04:13;;;;;;;168.45;12.93;;;;;;;;;;5076229;28;20057;-82
2022/11/29 08:06:55;;;;;;;102.97;11.30;;;;;;;;;;5063884;28;20041;-82
2022/11/29 08:09:24;;;;;;;56.17;10.07;;;;;;;;;;5068049;28;20100;-83
2022/11/29 08:11:51;;;;;;;87.03;9.50;;;;;;;;;;5085911;28;20075;-83
2022/11/29 08:14:19;;;;;;;59.38;10.05;;;;;;;;;;5063428;28;20040;-82
2022/11/29 08:16:46;;;;;;;85.20;11.45;;;;;;;;;;5079650;28;20041;-82
2022/11/29 08:19:17;;;;;;;128.80;10.60;;;;;;;;;;5059948;28;20507;-82
2022/11/29 08:21:46;;;;;;;142.02;11.43;;;;;;;;;;5062420;28;20049;-82
2022/11/29 08:24:15;;;;;;;92.93;10.38;;;;;;;;;;5078994;28;20050;-82
2022/11/29 08:26:46;;;;;;;172.70;12.15;;;;;;;;;;5064961;28;20519;-83
2022/11/29 08:29:16;;;;;;;174.15;12.82;;;;;;;;;;5062919;28;20524;-82
2022/11/29 08:31:44;;;;;;;180.25;13.07;;;;;;;;;;5054351;28;20053;-82
2022/11/29 08:34:14;;;;;;;79.72;10.43;;;;;;;;;;5060581;28;20609;-82
2022/11/29 08:36:44;;;;;;;91.22;11.70;;;;;;;;;;5057033;28;20073;-82
2022/11/29 08:39:14;;;;;;;159.98;11.98;;;;;;;;;;5059291;28;20684;-82
2022/11/29 08:41:50;;;;;;;146.20;12.05;;;;;;;;;;5063442;28;20049;-82
2022/11/29 08:44:19;;;;;;;99.30;10.07;;;;;;;;;;5075360;28;20049;-82
2022/11/29 08:49:33;;;;;;;125.20;10.27;;;;;;;;;;5059935;28;20061;-82
2022/11/29 08:54:47;;;;;;;59.55;8.55;;;;;;;;;;5057317;28;20084;-82
2022/11/29 08:57:20;;;;;;;60.28;9.40;;;;;;;;;;5060398;28;20054;-82
2022/11/29 09:00:09;;;;;;;73.30;9.82;;;;;;;;;;5058841;28;22143;-82
2022/11/29 09:02:39;;;;;;;92.05;9.57;;;;;;;;;;5058164;28;20069;-83
2022/11/29 09:05:12;;;;;;;98.10;10.43;;;;;;;;;;5055428;28;20064;-83
2022/11/29 09:07:54;;;;;;;64.72;9.82;;;;;;;;;;5050129;28;20084;-83
2022/11/29 09:10:29;;;;;;;54.53;8.23;;;;;;;;;;5048529;28;20045;-83
2022/11/29 09:12:58;;;;;;;49.97;8.55;;;;;;;;;;5065895;28;20140;-83
2022/11/29 09:15:53;;;;;;;76.22;9.40;;;;;;;;;;5062739;28;20045;-83
2022/11/29 09:18:27;;;;;;;50.83;8.68;;;;;;;;;;5057922;28;20104;-83
2022/11/29 09:20:59;;;;;;;64.43;8.45;;;;;;;;;;5070879;28;20049;-83
2022/11/29 09:23:44;;;;;;;;;;;;;;;;;;;;;
2022/11/29 09:26:36;;;;;;;60.03;8.75;;;;;;;;;;5052711;28;20046;-83
2022/11/29 09:29:15;;;;;;;;;;;;;;;;;;5069468;28;20069;-83
2022/11/29 09:31:49;;;;;;;75.22;8.32;;;;;;;;;;5053130;28;45120;-83
2022/11/29 09:37:24;;;;;;;71.43;9.43;;;;;;;;;;5045029;28;20064;-83
2022/11/29 09:39:53;;;;;;;60.70;9.38;;;;;;;;;;5067649;28;20045;-83
2022/11/29 09:42:45;;;;;;;80.97;9.43;;;;;;;;;;5055355;28;20118;-83
2022/11/29 09:45:23;;;;;;;67.18;8.68;;;;;;;;;;5051663;28;20069;-83
2022/11/29 09:48:20;;;;;;;60.70;8.32;;;;;;;;;;5061786;28;20034;-83
2022/11/29 09:50:52;;;;;;;62.85;8.25;;;;;;;;;;5017268;28;20061;-83
2022/11/29 09:53:42;;;;;;;79.60;9.30;;;;;;;;;;5056562;28;20052;-83
2022/11/29 09:56:39;;;;;;;61.50;8.27;;;;;;;;;;5058825;28;20049;-83
2022/11/29 09:59:52;;;;;;;50.67;9.18;;;;;;;;;;5044390;28;20144;-84
2022/11/29 10:02:24;;;;;;;51.97;8.60;;;;;;;;;;5058582;28;20054;-84
2022/11/29 10:04:58;;;;;;;50.25;8.95;;;;;;;;;;5058243;28;20057;-83
2022/11/29 10:07:29;;;;;;;69.05;9.80;;;;;;;;;;5071207;28;20083;-83
2022/11/29 10:10:02;;;;;;;30.15;8.50;;;;;;;;;;5053747;28;20092;-83
2022/11/29 10:12:39;;;;;;;26.77;7.53;;;;;;;;;;5060980;28;20104;-83
2022/11/29 10:15:12;;;;;;;51.25;8.85;;;;;;;;;;5058362;28;20427;-83
2022/11/29 10:18:05;;;;;;;53.10;9.57;;;;;;;;;;5057350;28;20061;-83
2022/11/29 10:20:41;;;;;;;41.40;9.00;;;;;;;;;;5058010;28;20026;-84
2022/11/29 10:23:23;;;;;;;33.90;8.38;;;;;;;;;;5054903;28;20061;-83
2022/11/29 10:25:52;;;;;;;43.00;8.48;;;;;;;;;;5060052;28;20060;-83
2022/11/29 10:28:24;;;;;;;49.30;9.45;;;;;;;;;;5058004;28;20060;-83
2022/11/29 10:30:58;;;;;;;64.20;9.98;;;;;;;;;;5072843;28;20084;-83
2022/11/29 10:33:33;;;;;;;53.53;8.95;;;;;;;;;;5058788;28;20527;-83
2022/11/29 10:36:09;;;;;;;59.50;9.35;;;;;;;;;;5057652;28;20108;-83
2022/11/29 10:38:37;;;;;;;59.80;9.75;;;;;;;;;;5056964;28;20136;-83
2022/11/29 10:41:15;;;;;;;59.05;10.02;;;;;;;;;;5039792;28;20089;-83
2022/11/29 10:43:43;;;;;;;41.35;10.05;;;;;;;;;;5067468;28;20060;-83
2022/11/29 10:46:18;;;;;;;38.10;9.20;;;;;;;;;;5058125;28;20057;-83
2022/11/29 10:48:49;;;;;;;60.20;9.52;;;;;;;;;;5061969;28;20049;-83
2022/11/29 10:51:17;;;;;;;44.28;8.93;;;;;;;;;;5060467;28;20049;-83
2022/11/29 10:53:45;;;;;;;53.78;10.25;;;;;;;;;;5076066;28;20058;-83
2022/11/29 10:56:15;;;;;;;45.33;9.38;;;;;;;;;;5070121;28;20176;-83
2022/11/29 10:59:03;;;;;;;38.08;9.70;;;;;;;;;;5059145;28;20128;-83
2022/11/29 11:01:42;;;;;;;39.08;9.30;;;;;;;;;;5075947;28;20064;-83
2022/11/29 11:04:29;;;;;;;37.65;8.73;;;;;;;;;;5055168;28;20050;-83
2022/11/29 11:07:00;;;;;;;28.48;8.25;;;;;;;;;;5062715;28;20055;-83
2022/11/29 11:09:35;;;;;;;36.03;9.48;;;;;;;;;;5055757;28;20060;-83
2022/11/29 11:12:21;;;;;;;26.73;8.45;;;;;;;;;;5069063;28;20107;-83
2022/11/29 11:14:50;;;;;;;38.40;9.32;;;;;;;;;;5056596;28;20075;-83
2022/11/29 11:17:31;;;;;;;29.92;8.20;;;;;;;;;;5054559;28;20092;-83
2022/11/29 11:19:59;;;;;;;32.38;9.95;;;;;;;;;;5061935;28;20053;-83
2022/11/29 11:22:31;;;;;;;38.90;10.00;;;;;;;;;;5058009;28;20045;-83
2022/11/29 11:25:02;;;;;;;43.35;10.13;;;;;;;;;;5072163;28;20064;-83
2022/11/29 11:27:33;;;;;;;41.75;10.82;;;;;;;;;;5059701;28;20053;-83
2022/11/29 11:30:04;;;;;;;40.45;10.25;;;;;;;;;;5058397;28;20053;-83
2022/11/29 11:32:32;;;;;;;34.65;9.38;;;;;;;;;;5076346;28;20053;-83
2022/11/29 11:35:20;;;;;;;27.83;8.82;;;;;;;;;;5056432;28;20050;-83
2022/11/29 11:37:57;;;;;;;38.33;9.40;;;;;;;;;;5083161;28;20059;-83
2022/11/29 11:40:33;;;;;;;31.98;9.25;;;;;;;;;;5061458;28;20105;-82
2022/11/29 11:43:15;;;;;;;30.15;9.63;;;;;;;;;;5074271;28;20141;-82
2022/11/29 11:45:50;;;;;;;37.15;10.57;;;;;;;;;;5066303;28;20955;-82
2022/11/29 11:48:18;;;;;;;35.83;10.48;;;;;;;;;;5064825;28;20050;-83
2022/11/29 11:50:46;;;;;;;29.95;10.25;;;;;;;;;;5065642;28;20080;-82
2022/11/29 11:53:21;;;;;;;44.75;10.68;;;;;;;;;;5065245;28;20069;-82
2022/11/29 11:56:10;;;;;;;30.38;10.10;;;;;;;;;;5074445;28;20081;-82
2022/11/29 11:58:39;;;;;;;34.08;10.48;;;;;;;;;;5061609;28;20060;-82
2022/11/29 12:01:12;;;;;;;40.22;11.68;;;;;;;;;;5074778;28;20046;-82
2022/11/29 12:03:58;;;;;;;39.40;11.88;;;;;;;;;;5058687;28;20030;-82
2022/11/29 12:06:34;;;;;;;43.28;11.13;;;;;;;;;;5073163;28;20067;-82
2022/11/29 12:09:05;;;;;;;38.42;10.95;;;;;;;;;;5067143;28;20089;-82
2022/11/29 12:11:39;;;;;;;35.13;11.00;;;;;;;;;;5086307;28;20068;-82
2022/11/29 12:14:20;;;;;;;41.05;13.43;;;;;;;;;;5065682;28;20101;-82
2022/11/29 12:16:50;;;;;;;36.83;12.13;;;;;;;;;;5081189;28;20114;-82
2022/11/29 12:19:20;;;;;;;37.38;11.68;;;;;;;;;;5075656;28;20045;-82
2022/11/29 12:21:51;;;;;;;37.83;11.93;;;;;;;;;;5066561;28;20061;-82
2022/11/29 12:24:18;;;;;;;42.55;12.02;;;;;;;;;;5063276;28;20089;-82
2022/11/29 12:26:47;;;;;;;48.28;11.98;;;;;;;;;;5072735;28;20056;-82
2022/11/29 12:29:31;;;;;;;40.22;12.10;;;;;;;;;;5079720;28;20080;-82
2022/11/29 12:32:23;;;;;;;35.58;11.40;;;;;;;;;;5069778;28;20054;-81
2022/11/29 12:34:54;;;;;;;40.70;12.60;;;;;;;;;;5068115;28;20879;-81
2022/11/29 12:37:24;;;;;;;35.10;12.30;;;;;;;;;;5062974;28;20507;-81
2022/11/29 12:39:56;;;;;;;35.45;11.52;;;;;;;;;;5066898;28;20173;-81
2022/11/29 12:42:47;;;;;;;41.78;11.45;;;;;;;;;;5059425;28;20152;-82
2022/11/29 12:45:21;;;;;;;31.35;11.63;;;;;;;;;;5078679;28;20050;-82
2022/11/29 12:48:13;;;;;;;38.08;12.77;;;;;;;;;;5057084;28;20051;-82
2022/11/29 12:50:46;;;;;;;30.83;11.73;;;;;;;;;;5069548;28;20052;-82
2022/11/29 12:53:32;;;;;;;42.53;12.63;;;;;;;;;;5079579;28;20567;-82
2022/11/29 12:56:21;;;;;;;44.80;12.45;;;;;;;;;;5060271;28;20101;-82
2022/11/29 12:58:49;;;;;;;34.38;11.73;;;;;;;;;;5057066;28;20046;-82
2022/11/29 13:01:28;;;;;;;41.88;13.02;;;;;;;;;;5067834;28;20065;-82
2022/11/29 13:04:11;;;;;;;30.40;12.88;;;;;;;;;;5061438;28;20048;-82
2022/11/29 13:06:48;;;;;;;41.38;12.77;;;;;;;;;;5062964;28;20049;-82
2022/11/29 13:09:35;;;;;;;42.58;11.88;;;;;;;;;;5059280;28;20705;-82
2022/11/29 13:12:13;;;;;;;37.88;12.45;;;;;;;;;;5064372;28;20870;-82
2022/11/29 13:14:50;;;;;;;38.75;12.18;;;;;;;;;;5075110;28;20053;-82
2022/11/29 13:17:30;;;;;;;42.45;12.05;;;;;;;;;;5063248;28;20081;-82
2022/11/29 13:20:19;;;;;;;32.67;12.18;;;;;;;;;;5056285;28;20434;-82
2022/11/29 13:23:02;;;;;;;33.85;12.38;;;;;;;;;;5059253;28;20131;-83
2022/11/29 13:25:33;;;;;;;40.63;13.15;;;;;;;;;;5061854;28;20049;-82
2022/11/29 13:28:21;;;;;;;39.22;13.88;;;;;;;;;;5063914;28;20049;-82
2022/11/29 13:30:49;;;;;;;38.92;14.32;;;;;;;;;;5062721;28;20450;-82
2022/11/29 13:33:23;;;;;;;37.83;12.93;;;;;;;;;;5082098;28;20034;-82
2022/11/29 13:35:54;;;;;;;43.22;12.98;;;;;;;;;;5059036;28;20198;-82
2022/11/29 13:38:25;;;;;;;42.88;13.05;;;;;;;;;;5061269;28;20045;-82
2022/11/29 13:41:05;;;;;;;35.83;13.30;;;;;;;;;;5030212;28;20050;-85
2022/11/29 13:43:38;;;;;;;33.45;13.25;;;;;;;;;;5039559;28;20054;-82
2022/11/29 13:46:18;;;;;;;35.65;12.82;;;;;;;;;;5042364;28;20055;-81
2022/11/29 13:48:49;;;;;;;41.50;13.40;;;;;;;;;;5016324;28;20072;-82
2022/11/29 13:51:32;;;;;;;40.85;14.63;;;;;;;;;;5043631;28;20182;-82
2022/11/29 13:54:04;;;;;;;44.97;14.45;;;;;;;;;;5051423;28;20066;-82
2022/11/29 13:56:34;;;;;;;46.70;14.13;;;;;;;;;;5044947;28;20042;-82
2022/11/29 13:59:07;;;;;;;46.92;14.98;;;;;;;;;;5043644;28;20045;-82
2022/11/29 14:01:52;;;;;;;43.75;14.80;;;;;;;;;;5048645;28;20215;-82
2022/11/29 14:04:23;;;;;;;41.88;14.55;;;;;;;;;;5034335;28;20062;-82
2022/11/29 14:07:07;;;;;;;41.72;14.48;;;;;;;;;;5035863;28;20092;-82
2022/11/29 14:09:50;;;;;;;38.78;14.07;;;;;;;;;;5039412;28;20062;-81
2022/11/29 14:12:18;;;;;;;43.33;14.35;;;;;;;;;;5031626;28;20064;-81
2022/11/29 14:14:53;;;;;;;37.30;14.38;;;;;;;;;;5039596;28;20054;-82
2022/11/29 14:17:32;;;;;;;48.83;14.27;;;;;;;;;;5040482;28;20108;-82
2022/11/29 14:20:18;;;;;;;39.10;13.63;;;;;;;;;;5040975;28;20276;-82
2022/11/29 14:23:04;;;;;;;44.17;13.43;;;;;;;;;;5044495;28;20099;-82
2022/11/29 14:25:35;;;;;;;42.08;14.32;;;;;;;;;;5044705;28;20046;-82
2022/11/29 14:28:22;;;;;;;48.10;15.63;;;;;;;;;;5041914;28;20042;-82
2022/11/29 14:31:00;;;;;;;36.67;13.23;;;;;;;;;;5041529;28;20074;-82
2022/11/29 14:33:31;;;;;;;40.47;13.52;;;;;;;;;;5024247;28;20042;-82
2022/11/29 14:36:19;;;;;;;39.88;14.20;;;;;;;;;;5040357;28;20054;-82
2022/11/29 14:39:10;;;;;;;39.80;13.88;;;;;;;;;;5042766;28;20053;-82
2022/11/29 14:41:50;;;;;;;39.78;13.50;;;;;;;;;;5066581;28;20052;-82
2022/11/29 14:44:24;;;;;;;43.75;13.27;;;;;;;;;;5060862;28;20050;-82
2022/11/29 14:47:15;;;;;;;33.47;12.18;;;;;;;;;;5058568;28;20054;-82
2022/11/29 14:49:46;;;;;;;32.67;13.02;;;;;;;;;;5063755;28;20057;-81
2022/11/29 14:52:13;;;;;;;46.22;13.30;;;;;;;;;;5059224;28;20046;-82
2022/11/29 14:54:52;;;;;;;31.38;12.82;;;;;;;;;;5055669;28;20049;-81
2022/11/29 14:57:40;;;;;;;42.92;14.05;;;;;;;;;;5056846;28;20508;-81
2022/11/29 15:00:10;;;;;;;38.63;12.90;;;;;;;;;;5056589;28;20069;-81
2022/11/29 15:02:41;;;;;;;46.97;13.65;;;;;;;;;;5054910;28;20041;-82
2022/11/29 15:05:28;;;;;;;39.22;13.25;;;;;;;;;;5062348;28;20112;-81
2022/11/29 15:08:11;;;;;;;36.88;14.00;;;;;;;;;;5060899;28;20046;-81
2022/11/29 15:10:40;;;;;;;39.75;12.70;;;;;;;;;;5067034;28;20042;-82
2022/11/29 15:13:12;;;;;;;49.35;13.88;;;;;;;;;;5066234;28;20055;-82